sensor_id;sensor_type;location;lat;lon;timestamp;temperature;humidity
69082;DHT22;68928;51.986;5.760;2023-03-30T00:00:54;12.60;96.40
69082;DHT22;68928;51.986;5.760;2023-03-30T00:03:20;12.50;96.20
69082;DHT22;68928;51.986;5.760;2023-03-30T00:05:47;12.60;96.10
69082;DHT22;68928;51.986;5.760;2023-03-30T00:08:14;12.80;95.60
69082;DHT22;68928;51.986;5.760;2023-03-30T00:10:43;12.70;95.40
69082;DHT22;68928;51.986;5.760;2023-03-30T00:13:10;12.70;96.00
69082;DHT22;68928;51.986;5.760;2023-03-30T00:15:36;12.70;95.70
69082;DHT22;68928;51.986;5.760;2023-03-30T00:18:01;12.80;95.20
69082;DHT22;68928;51.986;5.760;2023-03-30T00:20:29;12.80;95.20
69082;DHT22;68928;51.986;5.760;2023-03-30T00:22:58;13.00;94.90
69082;DHT22;68928;51.986;5.760;2023-03-30T00:25:23;13.00;95.60
69082;DHT22;68928;51.986;5.760;2023-03-30T00:27:49;12.90;95.50
69082;DHT22;68928;51.986;5.760;2023-03-30T00:30:16;13.00;94.70
69082;DHT22;68928;51.986;5.760;2023-03-30T00:32:43;13.10;94.40
69082;DHT22;68928;51.986;5.760;2023-03-30T00:35:10;13.10;94.40
69082;DHT22;68928;51.986;5.760;2023-03-30T00:37:36;13.00;94.50
69082;DHT22;68928;51.986;5.760;2023-03-30T00:40:04;13.10;94.40
69082;DHT22;68928;51.986;5.760;2023-03-30T00:42:34;13.00;93.90
69082;DHT22;68928;51.986;5.760;2023-03-30T00:45:16;13.00;94.30
69082;DHT22;68928;51.986;5.760;2023-03-30T00:50:39;13.10;94.00
69082;DHT22;68928;51.986;5.760;2023-03-30T00:53:11;13.10;93.80
69082;DHT22;68928;51.986;5.760;2023-03-30T00:55:38;13.10;93.60
69082;DHT22;68928;51.986;5.760;2023-03-30T00:58:06;13.10;93.80
69082;DHT22;68928;51.986;5.760;2023-03-30T01:00:35;13.20;93.80
69082;DHT22;68928;51.986;5.760;2023-03-30T01:03:13;13.20;93.80
69082;DHT22;68928;51.986;5.760;2023-03-30T01:05:41;13.20;93.70
69082;DHT22;68928;51.986;5.760;2023-03-30T01:08:10;13.20;93.60
69082;DHT22;68928;51.986;5.760;2023-03-30T01:10:42;13.20;93.90
69082;DHT22;68928;51.986;5.760;2023-03-30T01:13:08;13.20;93.60
69082;DHT22;68928;51.986;5.760;2023-03-30T01:15:38;13.20;93.70
69082;DHT22;68928;51.986;5.760;2023-03-30T01:18:26;13.20;93.70
69082;DHT22;68928;51.986;5.760;2023-03-30T01:24:47;13.30;93.40
69082;DHT22;68928;51.986;5.760;2023-03-30T01:27:16;13.30;93.60
69082;DHT22;68928;51.986;5.760;2023-03-30T01:29:47;13.20;93.50
69082;DHT22;68928;51.986;5.760;2023-03-30T01:35:24;13.20;93.90
69082;DHT22;68928;51.986;5.760;2023-03-30T01:43:25;13.20;93.90
69082;DHT22;68928;51.986;5.760;2023-03-30T01:45:58;13.20;93.80
69082;DHT22;68928;51.986;5.760;2023-03-30T01:48:32;13.20;93.40
69082;DHT22;68928;51.986;5.760;2023-03-30T01:51:05;13.30;93.30
69082;DHT22;68928;51.986;5.760;2023-03-30T01:56:14;13.30;92.80
69082;DHT22;68928;51.986;5.760;2023-03-30T01:58:55;13.30;93.20
69082;DHT22;68928;51.986;5.760;2023-03-30T02:01:22;13.40;92.90
69082;DHT22;68928;51.986;5.760;2023-03-30T02:03:52;13.40;93.20
69082;DHT22;68928;51.986;5.760;2023-03-30T02:06:35;13.40;93.30
69082;DHT22;68928;51.986;5.760;2023-03-30T02:09:10;13.40;92.80
69082;DHT22;68928;51.986;5.760;2023-03-30T02:11:39;13.40;93.10
69082;DHT22;68928;51.986;5.760;2023-03-30T02:14:08;13.40;93.10
69082;DHT22;68928;51.986;5.760;2023-03-30T02:16:39;13.30;93.30
69082;DHT22;68928;51.986;5.760;2023-03-30T02:19:07;13.30;92.90
69082;DHT22;68928;51.986;5.760;2023-03-30T02:21:33;13.30;93.20
69082;DHT22;68928;51.986;5.760;2023-03-30T02:24:01;13.20;93.50
69082;DHT22;68928;51.986;5.760;2023-03-30T02:26:28;13.10;93.40
69082;DHT22;68928;51.986;5.760;2023-03-30T02:28:54;13.20;93.50
69082;DHT22;68928;51.986;5.760;2023-03-30T02:31:20;13.10;93.50
69082;DHT22;68928;51.986;5.760;2023-03-30T02:34:07;13.10;93.40
69082;DHT22;68928;51.986;5.760;2023-03-30T02:47:54;13.10;92.90
69082;DHT22;68928;51.986;5.760;2023-03-30T02:59:59;13.20;92.80
69082;DHT22;68928;51.986;5.760;2023-03-30T03:02:37;13.40;92.50
69082;DHT22;68928;51.986;5.760;2023-03-30T03:05:09;13.40;92.70
69082;DHT22;68928;51.986;5.760;2023-03-30T03:07:37;13.40;92.70
69082;DHT22;68928;51.986;5.760;2023-03-30T03:10:04;13.50;92.60
69082;DHT22;68928;51.986;5.760;2023-03-30T03:12:31;13.40;92.90
69082;DHT22;68928;51.986;5.760;2023-03-30T03:14:57;13.50;93.10
69082;DHT22;68928;51.986;5.760;2023-03-30T03:17:22;13.50;93.30
69082;DHT22;68928;51.986;5.760;2023-03-30T03:19:48;13.50;93.30
69082;DHT22;68928;51.986;5.760;2023-03-30T03:22:14;13.60;93.20
69082;DHT22;68928;51.986;5.760;2023-03-30T03:24:40;13.60;93.40
69082;DHT22;68928;51.986;5.760;2023-03-30T03:27:06;13.60;93.50
69082;DHT22;68928;51.986;5.760;2023-03-30T03:29:33;13.70;93.20
69082;DHT22;68928;51.986;5.760;2023-03-30T03:31:59;13.70;93.80
69082;DHT22;68928;51.986;5.760;2023-03-30T03:34:25;13.70;93.50
69082;DHT22;68928;51.986;5.760;2023-03-30T03:36:51;13.70;93.70
69082;DHT22;68928;51.986;5.760;2023-03-30T03:39:19;13.80;93.70
69082;DHT22;68928;51.986;5.760;2023-03-30T03:41:44;13.70;93.70
69082;DHT22;68928;51.986;5.760;2023-03-30T03:44:10;13.70;93.90
69082;DHT22;68928;51.986;5.760;2023-03-30T03:46:36;13.70;93.80
69082;DHT22;68928;51.986;5.760;2023-03-30T03:49:01;13.70;93.90
69082;DHT22;68928;51.986;5.760;2023-03-30T03:51:27;13.70;93.80
69082;DHT22;68928;51.986;5.760;2023-03-30T03:53:53;13.70;93.90
69082;DHT22;68928;51.986;5.760;2023-03-30T03:56:20;13.70;94.00
69082;DHT22;68928;51.986;5.760;2023-03-30T03:58:46;13.70;94.20
69082;DHT22;68928;51.986;5.760;2023-03-30T04:01:11;13.80;94.20
69082;DHT22;68928;51.986;5.760;2023-03-30T04:03:39;13.80;94.00
69082;DHT22;68928;51.986;5.760;2023-03-30T04:06:05;13.80;94.20
69082;DHT22;68928;51.986;5.760;2023-03-30T04:08:31;13.80;94.10
69082;DHT22;68928;51.986;5.760;2023-03-30T04:11:12;13.80;94.20
69082;DHT22;68928;51.986;5.760;2023-03-30T04:13:39;13.80;94.40
69082;DHT22;68928;51.986;5.760;2023-03-30T04:16:06;13.80;94.50
69082;DHT22;68928;51.986;5.760;2023-03-30T04:18:32;13.70;94.40
69082;DHT22;68928;51.986;5.760;2023-03-30T04:21:04;13.80;94.90
69082;DHT22;68928;51.986;5.760;2023-03-30T04:23:32;13.80;94.50
69082;DHT22;68928;51.986;5.760;2023-03-30T04:25:59;13.80;94.60
69082;DHT22;68928;51.986;5.760;2023-03-30T04:28:27;13.90;94.20
69082;DHT22;68928;51.986;5.760;2023-03-30T04:30:57;13.80;94.50
69082;DHT22;68928;51.986;5.760;2023-03-30T04:33:24;13.80;94.40
69082;DHT22;68928;51.986;5.760;2023-03-30T04:35:50;13.80;94.90
69082;DHT22;68928;51.986;5.760;2023-03-30T04:38:15;13.80;94.80
69082;DHT22;68928;51.986;5.760;2023-03-30T04:40:50;13.90;94.40
69082;DHT22;68928;51.986;5.760;2023-03-30T04:43:17;13.90;94.70
69082;DHT22;68928;51.986;5.760;2023-03-30T04:45:53;13.80;95.00
69082;DHT22;68928;51.986;5.760;2023-03-30T04:48:20;13.80;95.00
69082;DHT22;68928;51.986;5.760;2023-03-30T04:50:47;13.80;95.30
69082;DHT22;68928;51.986;5.760;2023-03-30T04:53:14;13.70;95.30
69082;DHT22;68928;51.986;5.760;2023-03-30T04:55:41;13.80;95.20
69082;DHT22;68928;51.986;5.760;2023-03-30T04:58:10;13.80;95.10
69082;DHT22;68928;51.986;5.760;2023-03-30T05:00:36;13.80;95.60
69082;DHT22;68928;51.986;5.760;2023-03-30T05:03:02;13.70;96.70
69082;DHT22;68928;51.986;5.760;2023-03-30T05:05:27;13.60;98.30
69082;DHT22;68928;51.986;5.760;2023-03-30T05:07:53;13.50;98.40
69082;DHT22;68928;51.986;5.760;2023-03-30T05:10:19;13.40;98.80
69082;DHT22;68928;51.986;5.760;2023-03-30T05:12:44;13.40;98.90
69082;DHT22;68928;51.986;5.760;2023-03-30T05:15:10;13.30;98.70
69082;DHT22;68928;51.986;5.760;2023-03-30T05:17:36;13.40;98.30
69082;DHT22;68928;51.986;5.760;2023-03-30T05:20:04;13.30;98.80
69082;DHT22;68928;51.986;5.760;2023-03-30T05:22:33;13.30;99.50
69082;DHT22;68928;51.986;5.760;2023-03-30T05:24:59;13.20;99.90
69082;DHT22;68928;51.986;5.760;2023-03-30T05:27:24;12.90;99.90
69082;DHT22;68928;51.986;5.760;2023-03-30T05:29:50;12.80;99.90
69082;DHT22;68928;51.986;5.760;2023-03-30T05:32:16;12.80;99.90
69082;DHT22;68928;51.986;5.760;2023-03-30T05:34:41;12.80;99.90
69082;DHT22;68928;51.986;5.760;2023-03-30T05:37:07;12.80;99.90
69082;DHT22;68928;51.986;5.760;2023-03-30T05:39:32;12.80;99.90
69082;DHT22;68928;51.986;5.760;2023-03-30T05:41:58;12.80;99.90
69082;DHT22;68928;51.986;5.760;2023-03-30T05:44:23;12.70;99.90
69082;DHT22;68928;51.986;5.760;2023-03-30T05:46:49;12.60;99.90
69082;DHT22;68928;51.986;5.760;2023-03-30T05:49:15;12.50;99.90
69082;DHT22;68928;51.986;5.760;2023-03-30T05:51:40;12.60;99.90
69082;DHT22;68928;51.986;5.760;2023-03-30T05:54:09;12.50;99.90
69082;DHT22;68928;51.986;5.760;2023-03-30T05:56:34;12.70;99.90
69082;DHT22;68928;51.986;5.760;2023-03-30T05:59:00;12.70;99.90
69082;DHT22;68928;51.986;5.760;2023-03-30T06:01:27;12.60;99.90
69082;DHT22;68928;51.986;5.760;2023-03-30T06:03:52;12.60;99.90
69082;DHT22;68928;51.986;5.760;2023-03-30T06:06:18;12.60;99.90
69082;DHT22;68928;51.986;5.760;2023-03-30T06:08:43;12.60;99.90
69082;DHT22;68928;51.986;5.760;2023-03-30T06:11:09;12.60;99.90
69082;DHT22;68928;51.986;5.760;2023-03-30T06:13:37;12.60;99.90
69082;DHT22;68928;51.986;5.760;2023-03-30T06:16:03;12.60;99.90
69082;DHT22;68928;51.986;5.760;2023-03-30T06:18:29;12.70;99.90
69082;DHT22;68928;51.986;5.760;2023-03-30T06:20:55;12.70;99.90
69082;DHT22;68928;51.986;5.760;2023-03-30T06:23:21;12.70;99.90
69082;DHT22;68928;51.986;5.760;2023-03-30T06:25:47;12.70;99.90
69082;DHT22;68928;51.986;5.760;2023-03-30T06:28:17;12.70;99.90
69082;DHT22;68928;51.986;5.760;2023-03-30T06:30:44;12.80;99.90
69082;DHT22;68928;51.986;5.760;2023-03-30T06:33:13;12.80;99.90
69082;DHT22;68928;51.986;5.760;2023-03-30T06:35:43;12.90;99.90
69082;DHT22;68928;51.986;5.760;2023-03-30T06:38:10;12.90;99.90
69082;DHT22;68928;51.986;5.760;2023-03-30T06:40:36;12.90;99.90
69082;DHT22;68928;51.986;5.760;2023-03-30T06:43:02;12.90;99.90
69082;DHT22;68928;51.986;5.760;2023-03-30T06:45:29;12.90;99.90
69082;DHT22;68928;51.986;5.760;2023-03-30T06:47:54;12.90;99.90
69082;DHT22;68928;51.986;5.760;2023-03-30T06:50:21;12.90;99.90
69082;DHT22;68928;51.986;5.760;2023-03-30T06:52:47;13.00;99.90
69082;DHT22;68928;51.986;5.760;2023-03-30T06:55:13;13.00;99.90
69082;DHT22;68928;51.986;5.760;2023-03-30T06:57:39;13.00;99.90
69082;DHT22;68928;51.986;5.760;2023-03-30T07:00:06;12.90;99.90
69082;DHT22;68928;51.986;5.760;2023-03-30T07:02:41;13.10;99.90
69082;DHT22;68928;51.986;5.760;2023-03-30T07:05:08;13.10;99.90
69082;DHT22;68928;51.986;5.760;2023-03-30T07:07:34;13.10;99.30
69082;DHT22;68928;51.986;5.760;2023-03-30T07:10:02;13.10;99.40
69082;DHT22;68928;51.986;5.760;2023-03-30T07:12:37;13.00;99.40
69082;DHT22;68928;51.986;5.760;2023-03-30T07:15:04;13.00;99.30
69082;DHT22;68928;51.986;5.760;2023-03-30T07:17:43;13.10;99.50
69082;DHT22;68928;51.986;5.760;2023-03-30T07:20:10;13.10;99.30
69082;DHT22;68928;51.986;5.760;2023-03-30T07:22:40;13.00;99.50
69082;DHT22;68928;51.986;5.760;2023-03-30T07:25:07;13.10;99.30
69082;DHT22;68928;51.986;5.760;2023-03-30T07:27:34;13.10;99.30
69082;DHT22;68928;51.986;5.760;2023-03-30T07:30:01;13.20;99.30
69082;DHT22;68928;51.986;5.760;2023-03-30T07:32:26;13.20;99.40
69082;DHT22;68928;51.986;5.760;2023-03-30T07:34:52;13.30;99.80
69082;DHT22;68928;51.986;5.760;2023-03-30T07:37:17;13.40;99.40
69082;DHT22;68928;51.986;5.760;2023-03-30T07:39:43;13.40;98.10
69082;DHT22;68928;51.986;5.760;2023-03-30T07:42:09;13.40;97.90
69082;DHT22;68928;51.986;5.760;2023-03-30T07:44:35;13.50;98.00
69082;DHT22;68928;51.986;5.760;2023-03-30T07:47:00;13.50;98.00
69082;DHT22;68928;51.986;5.760;2023-03-30T07:49:31;13.50;97.70
69082;DHT22;68928;51.986;5.760;2023-03-30T07:51:57;13.50;96.70
69082;DHT22;68928;51.986;5.760;2023-03-30T07:54:23;13.60;97.20
69082;DHT22;68928;51.986;5.760;2023-03-30T07:56:49;13.70;96.80
69082;DHT22;68928;51.986;5.760;2023-03-30T07:59:17;13.60;96.80
69082;DHT22;68928;51.986;5.760;2023-03-30T08:01:44;13.60;96.70
69082;DHT22;68928;51.986;5.760;2023-03-30T08:04:11;13.60;97.20
69082;DHT22;68928;51.986;5.760;2023-03-30T08:06:37;13.60;96.70
69082;DHT22;68928;51.986;5.760;2023-03-30T08:09:03;13.60;96.40
69082;DHT22;68928;51.986;5.760;2023-03-30T08:11:29;13.70;96.10
69082;DHT22;68928;51.986;5.760;2023-03-30T08:13:56;13.80;96.10
69082;DHT22;68928;51.986;5.760;2023-03-30T08:16:21;13.80;95.80
69082;DHT22;68928;51.986;5.760;2023-03-30T08:18:50;13.80;95.80
69082;DHT22;68928;51.986;5.760;2023-03-30T08:21:19;13.80;96.20
69082;DHT22;68928;51.986;5.760;2023-03-30T08:23:45;13.90;95.80
69082;DHT22;68928;51.986;5.760;2023-03-30T08:26:11;13.90;96.10
69082;DHT22;68928;51.986;5.760;2023-03-30T08:28:36;13.80;95.30
69082;DHT22;68928;51.986;5.760;2023-03-30T08:31:04;14.00;95.10
69082;DHT22;68928;51.986;5.760;2023-03-30T08:33:30;14.00;95.30
69082;DHT22;68928;51.986;5.760;2023-03-30T08:35:57;14.10;94.80
69082;DHT22;68928;51.986;5.760;2023-03-30T08:38:24;14.10;95.60
69082;DHT22;68928;51.986;5.760;2023-03-30T08:40:50;14.10;95.00
69082;DHT22;68928;51.986;5.760;2023-03-30T08:46:01;14.20;94.80
69082;DHT22;68928;51.986;5.760;2023-03-30T08:48:31;14.10;94.40
69082;DHT22;68928;51.986;5.760;2023-03-30T08:51:50;14.20;94.00
69082;DHT22;68928;51.986;5.760;2023-03-30T08:54:13;14.20;94.40
69082;DHT22;68928;51.986;5.760;2023-03-30T09:02:26;14.20;93.70
69082;DHT22;68928;51.986;5.760;2023-03-30T09:08:12;13.90;93.50
69082;DHT22;68928;51.986;5.760;2023-03-30T09:10:44;14.10;93.90
69082;DHT22;68928;51.986;5.760;2023-03-30T09:13:16;14.00;93.90
69082;DHT22;68928;51.986;5.760;2023-03-30T09:18:25;14.00;94.40
69082;DHT22;68928;51.986;5.760;2023-03-30T09:20:55;13.80;96.60
69082;DHT22;68928;51.986;5.760;2023-03-30T09:23:24;13.60;97.50
69082;DHT22;68928;51.986;5.760;2023-03-30T09:26:06;13.70;97.70
69082;DHT22;68928;51.986;5.760;2023-03-30T09:31:42;13.80;97.10
69082;DHT22;68928;51.986;5.760;2023-03-30T09:37:05;14.00;96.50
69082;DHT22;68928;51.986;5.760;2023-03-30T09:39:35;14.10;96.00
69082;DHT22;68928;51.986;5.760;2023-03-30T09:44:54;14.30;95.80
69082;DHT22;68928;51.986;5.760;2023-03-30T09:47:25;14.50;93.40
69082;DHT22;68928;51.986;5.760;2023-03-30T09:49:59;14.60;93.30
69082;DHT22;68928;51.986;5.760;2023-03-30T09:52:27;14.60;93.80
69082;DHT22;68928;51.986;5.760;2023-03-30T09:54:53;14.60;92.40
69082;DHT22;68928;51.986;5.760;2023-03-30T09:57:28;14.60;92.80
69082;DHT22;68928;51.986;5.760;2023-03-30T09:59:54;14.60;92.60
69082;DHT22;68928;51.986;5.760;2023-03-30T10:02:22;14.50;92.60
69082;DHT22;68928;51.986;5.760;2023-03-30T10:07:22;14.80;92.50
69082;DHT22;68928;51.986;5.760;2023-03-30T10:09:48;14.90;91.20
69082;DHT22;68928;51.986;5.760;2023-03-30T10:12:14;15.00;91.40
69082;DHT22;68928;51.986;5.760;2023-03-30T10:14:40;15.00;91.30
69082;DHT22;68928;51.986;5.760;2023-03-30T10:17:06;15.10;90.40
69082;DHT22;68928;51.986;5.760;2023-03-30T10:19:33;15.10;90.90
69082;DHT22;68928;51.986;5.760;2023-03-30T10:21:59;15.00;89.70
69082;DHT22;68928;51.986;5.760;2023-03-30T10:24:30;14.90;89.00
69082;DHT22;68928;51.986;5.760;2023-03-30T10:27:10;14.80;91.00
69082;DHT22;68928;51.986;5.760;2023-03-30T10:29:37;14.80;90.20
69082;DHT22;68928;51.986;5.760;2023-03-30T10:32:15;14.90;90.10
69082;DHT22;68928;51.986;5.760;2023-03-30T10:34:53;14.80;89.40
69082;DHT22;68928;51.986;5.760;2023-03-30T10:37:31;14.80;91.30
69082;DHT22;68928;51.986;5.760;2023-03-30T10:40:02;14.90;89.20
69082;DHT22;68928;51.986;5.760;2023-03-30T10:42:35;15.10;89.20
69082;DHT22;68928;51.986;5.760;2023-03-30T10:45:03;15.10;90.10
69082;DHT22;68928;51.986;5.760;2023-03-30T10:50:22;15.40;87.80
69082;DHT22;68928;51.986;5.760;2023-03-30T10:53:12;15.50;87.50
69082;DHT22;68928;51.986;5.760;2023-03-30T10:59:38;15.30;86.60
69082;DHT22;68928;51.986;5.760;2023-03-30T11:02:08;15.10;87.30
69082;DHT22;68928;51.986;5.760;2023-03-30T11:04:41;15.50;87.30
69082;DHT22;68928;51.986;5.760;2023-03-30T11:07:30;15.50;85.60
69082;DHT22;68928;51.986;5.760;2023-03-30T11:10:04;15.50;85.50
69082;DHT22;68928;51.986;5.760;2023-03-30T11:12:36;15.60;85.00
69082;DHT22;68928;51.986;5.760;2023-03-30T11:15:20;15.60;84.00
69082;DHT22;68928;51.986;5.760;2023-03-30T11:18:07;15.60;86.60
69082;DHT22;68928;51.986;5.760;2023-03-30T11:26:03;16.00;83.10
69082;DHT22;68928;51.986;5.760;2023-03-30T11:34:09;15.80;83.30
69082;DHT22;68928;51.986;5.760;2023-03-30T11:36:38;15.70;82.80
69082;DHT22;68928;51.986;5.760;2023-03-30T11:39:13;15.60;84.30
69082;DHT22;68928;51.986;5.760;2023-03-30T11:41:44;15.50;82.80
69082;DHT22;68928;51.986;5.760;2023-03-30T11:44:13;15.50;81.70
69082;DHT22;68928;51.986;5.760;2023-03-30T12:05:45;16.20;80.70
69082;DHT22;68928;51.986;5.760;2023-03-30T12:10:43;16.40;82.30
69082;DHT22;68928;51.986;5.760;2023-03-30T12:13:12;16.70;80.50
69082;DHT22;68928;51.986;5.760;2023-03-30T12:15:49;17.10;78.30
69082;DHT22;68928;51.986;5.760;2023-03-30T12:21:04;17.10;78.50
69082;DHT22;68928;51.986;5.760;2023-03-30T12:23:44;17.00;81.50
69082;DHT22;68928;51.986;5.760;2023-03-30T12:28:49;16.80;79.90
69082;DHT22;68928;51.986;5.760;2023-03-30T12:34:21;16.80;76.00
69082;DHT22;68928;51.986;5.760;2023-03-30T12:36:52;17.10;76.70
69082;DHT22;68928;51.986;5.760;2023-03-30T12:39:24;17.20;76.40
69082;DHT22;68928;51.986;5.760;2023-03-30T12:42:04;17.40;77.30
69082;DHT22;68928;51.986;5.760;2023-03-30T12:48:08;17.70;75.50
69082;DHT22;68928;51.986;5.760;2023-03-30T13:04:15;17.70;75.00
69082;DHT22;68928;51.986;5.760;2023-03-30T13:06:51;17.40;74.90
69082;DHT22;68928;51.986;5.760;2023-03-30T13:29:39;16.70;76.40
69082;DHT22;68928;51.986;5.760;2023-03-30T13:46:34;16.70;78.80
69082;DHT22;68928;51.986;5.760;2023-03-30T13:51:51;16.60;79.40
69082;DHT22;68928;51.986;5.760;2023-03-30T13:54:24;16.60;80.70
69082;DHT22;68928;51.986;5.760;2023-03-30T13:57:11;16.50;82.10
69082;DHT22;68928;51.986;5.760;2023-03-30T13:59:50;16.60;82.80
69082;DHT22;68928;51.986;5.760;2023-03-30T14:02:20;16.60;81.10
69082;DHT22;68928;51.986;5.760;2023-03-30T14:04:46;17.00;79.20
69082;DHT22;68928;51.986;5.760;2023-03-30T14:07:20;17.30;79.10
69082;DHT22;68928;51.986;5.760;2023-03-30T14:10:06;17.20;77.70
69082;DHT22;68928;51.986;5.760;2023-03-30T14:12:34;17.40;77.70
69082;DHT22;68928;51.986;5.760;2023-03-30T14:15:15;17.60;79.40
69082;DHT22;68928;51.986;5.760;2023-03-30T14:17:40;17.70;76.80
69082;DHT22;68928;51.986;5.760;2023-03-30T14:23:00;18.90;68.80
69082;DHT22;68928;51.986;5.760;2023-03-30T14:25:28;19.50;67.10
69082;DHT22;68928;51.986;5.760;2023-03-30T14:28:00;19.70;65.60
69082;DHT22;68928;51.986;5.760;2023-03-30T14:30:27;19.50;67.10
69082;DHT22;68928;51.986;5.760;2023-03-30T14:33:12;19.20;67.00
69082;DHT22;68928;51.986;5.760;2023-03-30T14:35:43;19.20;71.10
69082;DHT22;68928;51.986;5.760;2023-03-30T14:38:20;19.00;68.70
69082;DHT22;68928;51.986;5.760;2023-03-30T14:40:48;18.60;68.30
69082;DHT22;68928;51.986;5.760;2023-03-30T14:43:17;18.30;70.40
69082;DHT22;68928;51.986;5.760;2023-03-30T14:45:44;17.90;70.70
69082;DHT22;68928;51.986;5.760;2023-03-30T14:48:20;17.60;73.60
69082;DHT22;68928;51.986;5.760;2023-03-30T14:50:48;17.50;72.00
69082;DHT22;68928;51.986;5.760;2023-03-30T14:53:21;17.50;73.50
69082;DHT22;68928;51.986;5.760;2023-03-30T14:55:48;17.50;73.70
69082;DHT22;68928;51.986;5.760;2023-03-30T14:58:14;17.40;73.00
69082;DHT22;68928;51.986;5.760;2023-03-30T15:00:41;17.90;70.80
69082;DHT22;68928;51.986;5.760;2023-03-30T15:03:08;17.70;70.90
69082;DHT22;68928;51.986;5.760;2023-03-30T15:05:36;17.50;71.60
69082;DHT22;68928;51.986;5.760;2023-03-30T15:08:05;17.80;72.20
69082;DHT22;68928;51.986;5.760;2023-03-30T15:10:44;17.70;70.80
69082;DHT22;68928;51.986;5.760;2023-03-30T15:13:24;17.50;71.90
69082;DHT22;68928;51.986;5.760;2023-03-30T15:15:52;17.90;72.40
69082;DHT22;68928;51.986;5.760;2023-03-30T15:18:23;18.50;69.30
69082;DHT22;68928;51.986;5.760;2023-03-30T15:20:49;18.00;69.50
69082;DHT22;68928;51.986;5.760;2023-03-30T15:23:15;18.00;70.90
69082;DHT22;68928;51.986;5.760;2023-03-30T15:25:41;18.00;70.70
69082;DHT22;68928;51.986;5.760;2023-03-30T15:28:12;17.70;70.90
69082;DHT22;68928;51.986;5.760;2023-03-30T15:30:41;17.60;69.30
69082;DHT22;68928;51.986;5.760;2023-03-30T15:36:10;17.80;69.50
69082;DHT22;68928;51.986;5.760;2023-03-30T15:38:45;17.60;71.30
69082;DHT22;68928;51.986;5.760;2023-03-30T15:41:13;17.30;71.50
69082;DHT22;68928;51.986;5.760;2023-03-30T15:46:18;17.00;72.10
69082;DHT22;68928;51.986;5.760;2023-03-30T15:48:48;16.90;72.50
69082;DHT22;68928;51.986;5.760;2023-03-30T15:54:47;17.00;73.10
69082;DHT22;68928;51.986;5.760;2023-03-30T15:59:19;16.90;73.70
69082;DHT22;68928;51.986;5.760;2023-03-30T16:01:47;16.90;72.60
69082;DHT22;68928;51.986;5.760;2023-03-30T16:04:16;16.70;72.50
69082;DHT22;68928;51.986;5.760;2023-03-30T16:06:42;16.70;72.10
69082;DHT22;68928;51.986;5.760;2023-03-30T16:09:08;16.80;71.80
69082;DHT22;68928;51.986;5.760;2023-03-30T16:11:34;17.00;70.60
69082;DHT22;68928;51.986;5.760;2023-03-30T16:14:00;17.10;73.20
69082;DHT22;68928;51.986;5.760;2023-03-30T16:16:27;16.90;71.60
69082;DHT22;68928;51.986;5.760;2023-03-30T16:18:53;16.90;71.40
69082;DHT22;68928;51.986;5.760;2023-03-30T16:21:18;16.90;71.70
69082;DHT22;68928;51.986;5.760;2023-03-30T16:23:49;16.90;72.70
69082;DHT22;68928;51.986;5.760;2023-03-30T16:26:15;16.90;71.70
69082;DHT22;68928;51.986;5.760;2023-03-30T16:28:41;17.20;71.60
69082;DHT22;68928;51.986;5.760;2023-03-30T16:31:18;17.10;71.50
69082;DHT22;68928;51.986;5.760;2023-03-30T16:33:44;17.00;70.10
69082;DHT22;68928;51.986;5.760;2023-03-30T16:36:18;16.90;71.40
69082;DHT22;68928;51.986;5.760;2023-03-30T16:38:45;16.60;71.50
69082;DHT22;68928;51.986;5.760;2023-03-30T16:41:20;16.30;72.30
69082;DHT22;68928;51.986;5.760;2023-03-30T16:43:46;16.30;72.80
69082;DHT22;68928;51.986;5.760;2023-03-30T16:46:13;16.40;73.50
69082;DHT22;68928;51.986;5.760;2023-03-30T16:48:38;16.60;73.70
69082;DHT22;68928;51.986;5.760;2023-03-30T16:51:04;16.90;73.40
69082;DHT22;68928;51.986;5.760;2023-03-30T16:53:33;16.80;70.80
69082;DHT22;68928;51.986;5.760;2023-03-30T16:56:00;16.70;73.00
69082;DHT22;68928;51.986;5.760;2023-03-30T16:58:26;16.60;72.40
69082;DHT22;68928;51.986;5.760;2023-03-30T17:00:53;16.60;75.00
69082;DHT22;68928;51.986;5.760;2023-03-30T17:03:20;16.40;73.40
69082;DHT22;68928;51.986;5.760;2023-03-30T17:05:46;16.40;73.30
69082;DHT22;68928;51.986;5.760;2023-03-30T17:08:19;16.40;73.90
69082;DHT22;68928;51.986;5.760;2023-03-30T17:10:46;16.20;73.80
69082;DHT22;68928;51.986;5.760;2023-03-30T17:13:12;16.00;75.60
69082;DHT22;68928;51.986;5.760;2023-03-30T17:15:37;15.90;76.10
69082;DHT22;68928;51.986;5.760;2023-03-30T17:18:22;15.80;76.20
69082;DHT22;68928;51.986;5.760;2023-03-30T17:20:50;15.70;77.70
69082;DHT22;68928;51.986;5.760;2023-03-30T17:23:21;15.60;78.30
69082;DHT22;68928;51.986;5.760;2023-03-30T17:25:47;15.50;79.00
69082;DHT22;68928;51.986;5.760;2023-03-30T17:28:25;15.50;79.40
69082;DHT22;68928;51.986;5.760;2023-03-30T17:30:53;15.50;79.60
69082;DHT22;68928;51.986;5.760;2023-03-30T17:33:19;15.50;79.80
69082;DHT22;68928;51.986;5.760;2023-03-30T17:35:48;15.40;80.80
69082;DHT22;68928;51.986;5.760;2023-03-30T17:38:15;15.40;81.10
69082;DHT22;68928;51.986;5.760;2023-03-30T17:40:42;15.20;81.70
69082;DHT22;68928;51.986;5.760;2023-03-30T17:43:09;15.20;82.30
69082;DHT22;68928;51.986;5.760;2023-03-30T17:45:36;15.10;82.80
69082;DHT22;68928;51.986;5.760;2023-03-30T17:48:04;15.00;83.70
69082;DHT22;68928;51.986;5.760;2023-03-30T17:50:34;15.00;83.90
69082;DHT22;68928;51.986;5.760;2023-03-30T17:53:01;15.00;84.40
69082;DHT22;68928;51.986;5.760;2023-03-30T17:55:28;14.90;85.00
69082;DHT22;68928;51.986;5.760;2023-03-30T17:57:55;14.80;85.70
69082;DHT22;68928;51.986;5.760;2023-03-30T18:00:27;14.90;85.80
69082;DHT22;68928;51.986;5.760;2023-03-30T18:02:54;14.80;85.90
69082;DHT22;68928;51.986;5.760;2023-03-30T18:05:22;14.80;86.30
69082;DHT22;68928;51.986;5.760;2023-03-30T18:07:48;14.70;87.00
69082;DHT22;68928;51.986;5.760;2023-03-30T18:12:40;14.60;87.40
69082;DHT22;68928;51.986;5.760;2023-03-30T18:15:06;14.50;88.30
69082;DHT22;68928;51.986;5.760;2023-03-30T18:17:32;14.50;88.80
69082;DHT22;68928;51.986;5.760;2023-03-30T18:19:58;14.50;89.10
69082;DHT22;68928;51.986;5.760;2023-03-30T18:22:24;14.40;89.60
69082;DHT22;68928;51.986;5.760;2023-03-30T18:24:50;14.40;89.50
69082;DHT22;68928;51.986;5.760;2023-03-30T18:27:16;14.40;89.30
69082;DHT22;68928;51.986;5.760;2023-03-30T18:29:42;14.50;89.60
69082;DHT22;68928;51.986;5.760;2023-03-30T18:32:07;14.40;89.50
69082;DHT22;68928;51.986;5.760;2023-03-30T18:34:33;14.30;90.00
69082;DHT22;68928;51.986;5.760;2023-03-30T18:36:58;14.20;90.60
69082;DHT22;68928;51.986;5.760;2023-03-30T18:39:24;14.10;90.40
69082;DHT22;68928;51.986;5.760;2023-03-30T18:41:50;14.00;90.50
69082;DHT22;68928;51.986;5.760;2023-03-30T18:44:15;14.10;90.50